createdAt,value
2019-02-07T00:03:18.300Z,35.83
2019-02-07T00:08:10.929Z,34.07
2019-02-07T00:13:03.794Z,36.90
2019-02-07T00:17:56.657Z,33.53
2019-02-07T00:22:49.289Z,36.17
2019-02-07T00:27:41.636Z,45.10
2019-02-07T00:32:34.513Z,32.57
2019-02-07T00:37:26.924Z,40.63
2019-02-07T00:42:19.561Z,41.47
2019-02-07T00:47:12.399Z,40.43
2019-02-07T00:52:04.940Z,39.43
2019-02-07T00:56:57.245Z,48.67
2019-02-07T01:01:49.948Z,47.77
2019-02-07T01:06:42.473Z,47.20
2019-02-07T01:11:35.988Z,48.93
2019-02-07T01:16:28.729Z,48.03
2019-02-07T01:21:21.637Z,50.77
2019-02-07T01:26:14.344Z,47.47
2019-02-07T01:31:07.053Z,57.57
2019-02-07T01:35:59.757Z,46.60
2019-02-07T01:40:52.193Z,47.93
2019-02-07T01:45:45.144Z,54.63
2019-02-07T01:50:37.908Z,46.30
2019-02-07T01:55:30.144Z,46.80
2019-02-07T02:00:22.972Z,50.97
2019-02-07T02:05:18.049Z,44.00
2019-02-07T02:10:14.076Z,53.90
2019-02-07T02:15:08.520Z,51.93
2019-02-07T02:20:01.038Z,53.53
2019-02-07T02:24:53.226Z,48.90
2019-02-07T02:29:45.772Z,47.13
2019-02-07T02:34:38.321Z,47.00
2019-02-07T02:39:31.872Z,45.33
2019-02-07T02:44:24.694Z,49.17
2019-02-07T02:49:17.703Z,52.57
2019-02-07T02:54:33.293Z,61.63
2019-02-07T02:59:29.977Z,61.70
2019-02-07T03:04:24.072Z,54.93
2019-02-07T03:09:20.654Z,57.00
2019-02-07T03:14:15.022Z,49.23
2019-02-07T03:19:09.017Z,91.67
2019-02-07T03:24:19.712Z,56.73
2019-02-07T03:29:13.890Z,55.40
2019-02-07T03:34:14.129Z,53.53
2019-02-07T03:39:15.717Z,50.27
2019-02-07T03:44:24.926Z,56.63
2019-02-07T03:49:24.630Z,55.77
2019-02-07T03:54:27.241Z,54.63
2019-02-07T03:59:36.152Z,58.23
2019-02-07T04:04:46.685Z,56.00
2019-02-07T04:09:58.887Z,57.60
2019-02-07T04:14:59.013Z,62.43
2019-02-07T04:20:08.275Z,77.67
2019-02-07T04:25:18.708Z,80.33
2019-02-07T04:30:29.606Z,59.40
2019-02-07T04:35:38.947Z,60.43
2019-02-07T04:40:35.625Z,66.53
2019-02-07T04:45:41.514Z,70.23
2019-02-07T04:50:35.417Z,76.50
2019-02-07T04:55:45.977Z,67.53
2019-02-07T05:00:57.268Z,68.47
2019-02-07T05:05:51.977Z,59.90
2019-02-07T05:10:55.331Z,56.10
2019-02-07T05:15:55.270Z,58.53
2019-02-07T05:20:55.217Z,54.77
2019-02-07T05:26:05.402Z,54.73
2019-02-07T05:31:12.073Z,59.23
2019-02-07T05:36:06.489Z,58.47
2019-02-07T05:41:00.553Z,55.13
2019-02-07T05:45:57.517Z,61.30
2019-02-07T05:50:53.960Z,57.53
2019-02-07T05:56:04.178Z,55.17
2019-02-07T06:00:59.092Z,56.73
2019-02-07T06:05:56.557Z,56.63
2019-02-07T06:11:03.099Z,59.10
2019-02-07T06:16:03.364Z,55.00
2019-02-07T06:21:12.651Z,62.77
2019-02-07T06:26:09.677Z,61.40
2019-02-07T06:31:19.863Z,63.03
2019-02-07T06:36:24.652Z,57.60
2019-02-07T06:41:24.642Z,58.97
2019-02-07T06:46:18.814Z,58.27
2019-02-07T06:51:23.289Z,59.17
2019-02-07T06:56:26.601Z,55.93
2019-02-07T07:01:23.545Z,56.23
2019-02-07T07:06:24.989Z,57.37
2019-02-07T07:11:22.081Z,59.37
2019-02-07T07:16:18.724Z,56.50
2019-02-07T07:21:28.961Z,58.03
2019-02-07T07:26:39.691Z,60.57
2019-02-07T07:31:50.220Z,56.43
2019-02-07T07:36:56.424Z,64.57
2019-02-07T07:42:01.153Z,59.73
2019-02-07T07:46:57.851Z,67.63
2019-02-07T07:52:08.389Z,56.70
2019-02-07T07:57:20.923Z,61.60
2019-02-07T08:02:23.377Z,60.00
2019-02-07T08:07:17.808Z,60.90
2019-02-07T08:12:36.176Z,64.30
2019-02-07T08:17:47.610Z,61.23
2019-02-07T08:22:49.909Z,56.97
2019-02-07T08:27:56.305Z,58.57
2019-02-07T08:32:59.362Z,61.90
2019-02-07T08:38:02.566Z,55.87
2019-02-07T08:43:00.256Z,57.23
2019-02-07T08:47:59.830Z,60.03
2019-02-07T08:53:10.134Z,54.20
2019-02-07T08:58:19.070Z,55.57
2019-02-07T09:03:18.694Z,60.93
2019-02-07T09:08:31.549Z,57.47
2019-02-07T09:13:31.752Z,55.77
2019-02-07T09:18:41.041Z,71.23
2019-02-07T09:23:38.117Z,60.37
2019-02-07T09:28:34.841Z,51.83
2019-02-07T09:33:45.299Z,45.00
2019-02-07T09:38:42.536Z,44.30
2019-02-07T09:43:36.457Z,49.93
2019-02-07T09:48:33.261Z,44.77
2019-02-07T09:53:27.313Z,61.27
2019-02-07T09:58:24.822Z,35.00
2019-02-07T10:03:37.410Z,41.05
2019-02-07T10:08:34.769Z,39.35
2019-02-07T10:13:31.528Z,31.48
2019-02-07T10:18:41.684Z,28.65
2019-02-07T10:23:51.776Z,30.55
2019-02-07T10:29:03.970Z,30.23
2019-02-07T10:33:57.980Z,30.70
2019-02-07T10:39:00.733Z,30.47
2019-02-07T10:44:10.065Z,35.50
2019-02-07T10:49:22.603Z,37.40
2019-02-07T10:54:19.457Z,36.33
2019-02-07T10:59:19.521Z,37.33
2019-02-07T11:04:16.079Z,39.27
2019-02-07T11:09:27.089Z,36.23
2019-02-07T11:14:27.038Z,36.77
2019-02-07T11:19:33.092Z,37.17
2019-02-07T11:24:37.749Z,38.37
2019-02-07T11:29:31.715Z,38.23
2019-02-07T11:34:45.975Z,38.13
2019-02-07T11:39:39.085Z,34.60
2019-02-07T11:44:42.353Z,33.43
2019-02-07T11:49:38.675Z,33.53
2019-02-07T11:54:35.732Z,31.17
2019-02-07T11:59:30.173Z,30.85
2019-02-07T12:04:24.305Z,26.27
2019-02-07T12:09:27.633Z,25.48
2019-02-07T12:14:21.925Z,27.35
2019-02-07T12:19:19.538Z,25.27
2019-02-07T12:24:17.912Z,23.45
2019-02-07T12:29:17.933Z,30.50
2019-02-07T12:34:19.891Z,28.27
2019-02-07T12:39:19.445Z,19.00
2019-02-07T12:44:28.593Z,21.33
2019-02-07T12:49:35.231Z,19.30
2019-02-07T12:54:44.154Z,18.65
2019-02-07T12:59:56.269Z,21.40
2019-02-07T13:04:53.278Z,17.92
2019-02-07T13:09:50.305Z,22.22
2019-02-07T13:14:47.059Z,21.25
2019-02-07T13:19:41.145Z,22.27
2019-02-07T13:24:41.883Z,18.57
2019-02-07T13:29:35.782Z,14.95
2019-02-07T13:34:42.091Z,12.98
2019-02-07T13:39:51.797Z,25.75
2019-02-07T13:44:58.001Z,14.00
2019-02-07T13:50:06.993Z,15.03
2019-02-07T13:55:18.327Z,11.25
2019-02-07T14:00:31.473Z,14.53
2019-02-07T14:05:34.080Z,10.00
2019-02-07T14:10:34.041Z,9.08
2019-02-07T14:15:28.061Z,11.10
2019-02-07T14:20:24.829Z,18.35
2019-02-07T14:25:27.786Z,9.15
2019-02-07T14:30:21.940Z,18.95
2019-02-07T14:35:19.796Z,16.12
2019-02-07T14:40:30.336Z,12.07
2019-02-07T14:45:40.718Z,9.48
2019-02-07T14:50:33.431Z,14.50
2019-02-07T14:55:26.341Z,6.58
2019-02-07T15:00:24.489Z,6.10
2019-02-07T15:05:17.227Z,11.18
2019-02-07T15:10:13.033Z,14.73
2019-02-07T15:15:08.505Z,10.88
2019-02-07T15:20:01.187Z,7.67
2019-02-07T15:24:53.838Z,11.78
2019-02-07T15:29:46.781Z,17.48
2019-02-07T15:34:39.509Z,15.78
2019-02-07T15:39:32.156Z,15.48
2019-02-07T15:44:24.786Z,12.80
2019-02-07T15:49:17.273Z,8.83
2019-02-07T15:54:09.969Z,11.12
2019-02-07T15:59:19.353Z,9.78
2019-02-07T16:04:13.559Z,13.23
2019-02-07T16:09:08.581Z,10.03
2019-02-07T16:14:01.314Z,13.43
2019-02-07T16:18:54.055Z,17.33
2019-02-07T16:23:46.456Z,17.23
2019-02-07T16:28:38.782Z,14.97
2019-02-07T16:33:31.258Z,13.37
2019-02-07T16:38:23.729Z,8.67
2019-02-07T16:43:16.169Z,22.30
2019-02-07T16:48:09.392Z,17.27
2019-02-07T16:53:01.807Z,19.00
2019-02-07T16:57:54.119Z,22.77
2019-02-07T17:02:47.122Z,21.63
2019-02-07T17:07:39.772Z,24.10
2019-02-07T17:12:32.271Z,14.77
2019-02-07T17:17:24.866Z,18.73
2019-02-07T17:22:17.530Z,15.07
2019-02-07T17:27:10.398Z,17.43
2019-02-07T17:32:03.204Z,12.33
2019-02-07T17:36:55.921Z,15.07
2019-02-07T17:41:48.621Z,11.33
2019-02-07T17:46:41.124Z,10.03
2019-02-07T17:51:33.922Z,14.73
2019-02-07T17:56:26.525Z,12.53
2019-02-07T18:01:19.500Z,13.80
2019-02-07T18:06:12.269Z,13.67
2019-02-07T18:11:05.621Z,12.43
2019-02-07T18:15:58.189Z,11.53
2019-02-07T18:20:50.688Z,14.23
2019-02-07T18:25:43.193Z,12.20
2019-02-07T18:30:35.600Z,14.10
2019-02-07T18:35:28.870Z,15.37
2019-02-07T18:40:27.651Z,12.67
2019-02-07T18:45:21.501Z,13.83
2019-02-07T18:50:29.473Z,10.17
2019-02-07T18:55:21.835Z,11.83
2019-02-07T19:00:17.619Z,15.23
2019-02-07T19:05:13.783Z,12.70
2019-02-07T19:10:08.998Z,13.80
2019-02-07T19:15:01.416Z,12.73
2019-02-07T19:19:53.742Z,13.10
2019-02-07T19:24:46.134Z,13.60
2019-02-07T19:29:38.870Z,10.60
2019-02-07T19:34:31.768Z,11.63
2019-02-07T19:39:24.209Z,9.63
2019-02-07T19:44:16.868Z,8.77
2019-02-07T19:49:09.625Z,8.50
2019-02-07T19:54:02.186Z,11.60
2019-02-07T19:58:54.636Z,9.53
2019-02-07T20:03:47.289Z,11.57
2019-02-07T20:08:39.881Z,12.03
2019-02-07T20:13:32.674Z,10.53
2019-02-07T20:18:25.378Z,6.67
2019-02-07T20:23:17.980Z,9.60
2019-02-07T20:28:10.685Z,12.77
2019-02-07T20:33:03.093Z,11.83
2019-02-07T20:37:55.606Z,13.50
2019-02-07T20:42:48.081Z,10.03
2019-02-07T20:47:40.693Z,9.67
2019-02-07T20:52:33.004Z,11.83
2019-02-07T20:57:25.383Z,7.73
2019-02-07T21:02:18.348Z,9.33
2019-02-07T21:07:10.798Z,11.07
2019-02-07T21:12:03.344Z,8.47
2019-02-07T21:16:56.064Z,8.93
2019-02-07T21:21:48.613Z,11.97
2019-02-07T21:26:41.245Z,8.27
2019-02-07T21:31:33.953Z,14.40
2019-02-07T21:36:26.716Z,9.80
2019-02-07T21:41:19.036Z,15.43
2019-02-07T21:46:11.413Z,11.10
2019-02-07T21:51:04.064Z,12.23
2019-02-07T21:55:56.540Z,11.60
2019-02-07T22:00:48.918Z,12.10
2019-02-07T22:05:41.367Z,18.47
2019-02-07T22:10:34.128Z,16.20
2019-02-07T22:15:28.064Z,10.47
2019-02-07T22:20:22.108Z,11.23
2019-02-07T22:25:14.969Z,16.47
2019-02-07T22:30:19.607Z,17.00
2019-02-07T22:35:13.005Z,11.17
2019-02-07T22:40:08.385Z,19.67
2019-02-07T22:45:01.205Z,13.20
2019-02-07T22:49:53.665Z,11.20
2019-02-07T22:54:46.544Z,15.27
2019-02-07T22:59:38.972Z,11.97
2019-02-07T23:04:31.638Z,17.27
2019-02-07T23:09:24.469Z,14.20
2019-02-07T23:14:17.465Z,15.20
2019-02-07T23:19:09.863Z,15.03
2019-02-07T23:24:02.185Z,17.70
2019-02-07T23:28:54.676Z,15.50
2019-02-07T23:33:47.873Z,16.10
2019-02-07T23:38:40.288Z,17.70
2019-02-07T23:43:32.938Z,14.77
2019-02-07T23:48:25.865Z,17.93
2019-02-07T23:53:18.556Z,18.23
2019-02-07T23:58:11.140Z,18.87
